Portada
METAR-TAF:

METAR-TAF

Aeroports :

Gibraltar, Gibraltar

latitud: 36-09N, longitud: 005-21W, altitud: 5 m

Observació

L'informe es va fer fa 1 hora i 4 minuts, a les 16:50 UTC
Vent 4 kt del Est/Nord-Est
Temperatura 19°C
Humitat 73%
Pressió 1011 hPa
Visibilitat 10 km o més
Escasses núvols a una alçada de 2000 ft
Núvols disperses a una alçada de 5000 ft
Cel cobert a una alçada de 8000 ft
xàfecs en les proximitats

METAR: LXGB 191650Z 06004KT 9999 VCSH FEW020 SCT050 OVC080 19/14 Q1011 TEMPO 7000 SHRA BKN020

Hora: 19:54 (17:54 UTC)

Pronòstic

L'informe es va fer fa 1 hora i 26 minuts, a les 16:28 UTC
Pronòstic vàlid del 19 a les 18 UTC al 19 a les 22 UTC
Vent 11 kt del Est/Nord-Est
Visibilitat 10 km o més
Escasses núvols a una alçada de 2200 ft
Temporalment
l' 19 a les 18 UTC al 19 a les 22 UTC
Visibilitat: 6000 m
Cel ennuvolat a una alçada de 2200 ft
xàfecs de pluja

TAF: LXGB 191628Z 1918/1922 06011KT 9999 FEW022 TEMPO 1918/1922 6000 SHRA BKN022

Observacions i pronòstics meteorològics de més de 4000 aeroports (METAR i TAF).

Les estacions disponibles són els punts grocs i vermells al mapa.

Posi el ratolí al punt desitjat per veure el nom de l'estació.

Feu clic per veure les observacions i els pronòstics meteorològics.

Per canviar el mapa: feu clic els botons verds amb una creu de color negre per apropar; al botó verd amb un guió per allunyar la imatge; o en les fletxes verdes per a mapes adjacents.


METAR-TAF: